sensor_id;sensor_type;location;lat;lon;timestamp;P1;durP1;ratioP1;P2;durP2;ratioP2
74267;SDS011;62638;51.362;12.472;2023-05-13T00:00:42;9.33;;;5.37;;
74267;SDS011;62638;51.362;12.472;2023-05-13T00:03:08;8.05;;;4.90;;
74267;SDS011;62638;51.362;12.472;2023-05-13T00:05:33;8.30;;;4.37;;
74267;SDS011;62638;51.362;12.472;2023-05-13T00:07:58;8.27;;;4.97;;
74267;SDS011;62638;51.362;12.472;2023-05-13T00:10:31;9.73;;;4.70;;
74267;SDS011;62638;51.362;12.472;2023-05-13T00:12:56;9.15;;;5.22;;
74267;SDS011;62638;51.362;12.472;2023-05-13T00:15:22;9.73;;;5.40;;
74267;SDS011;62638;51.362;12.472;2023-05-13T00:17:47;9.37;;;4.63;;
74267;SDS011;62638;51.362;12.472;2023-05-13T00:20:12;10.02;;;5.25;;
74267;SDS011;62638;51.362;12.472;2023-05-13T00:22:37;7.80;;;5.50;;
74267;SDS011;62638;51.362;12.472;2023-05-13T00:25:03;10.33;;;5.47;;
74267;SDS011;62638;51.362;12.472;2023-05-13T00:27:28;9.50;;;5.05;;
74267;SDS011;62638;51.362;12.472;2023-05-13T00:29:53;12.30;;;5.47;;
74267;SDS011;62638;51.362;12.472;2023-05-13T00:32:19;10.43;;;5.20;;
74267;SDS011;62638;51.362;12.472;2023-05-13T00:34:44;11.07;;;5.63;;
74267;SDS011;62638;51.362;12.472;2023-05-13T00:37:09;11.57;;;5.57;;
74267;SDS011;62638;51.362;12.472;2023-05-13T00:39:36;11.52;;;5.80;;
74267;SDS011;62638;51.362;12.472;2023-05-13T00:42:01;13.40;;;5.23;;
74267;SDS011;62638;51.362;12.472;2023-05-13T00:44:28;10.38;;;6.28;;
74267;SDS011;62638;51.362;12.472;2023-05-13T00:46:54;11.80;;;5.35;;
74267;SDS011;62638;51.362;12.472;2023-05-13T00:49:20;9.52;;;5.70;;
74267;SDS011;62638;51.362;12.472;2023-05-13T00:51:45;8.03;;;4.30;;
74267;SDS011;62638;51.362;12.472;2023-05-13T00:54:10;8.07;;;4.77;;
74267;SDS011;62638;51.362;12.472;2023-05-13T00:56:36;10.30;;;5.37;;
74267;SDS011;62638;51.362;12.472;2023-05-13T00:59:02;9.13;;;5.78;;
74267;SDS011;62638;51.362;12.472;2023-05-13T01:04:06;11.52;;;6.28;;
74267;SDS011;62638;51.362;12.472;2023-05-13T01:09:37;11.30;;;6.28;;
74267;SDS011;62638;51.362;12.472;2023-05-13T01:12:25;12.80;;;6.38;;
74267;SDS011;62638;51.362;12.472;2023-05-13T01:15:03;9.57;;;5.63;;
74267;SDS011;62638;51.362;12.472;2023-05-13T01:20:06;10.77;;;5.75;;
74267;SDS011;62638;51.362;12.472;2023-05-13T01:22:32;9.80;;;5.55;;
74267;SDS011;62638;51.362;12.472;2023-05-13T01:24:58;8.57;;;5.70;;
74267;SDS011;62638;51.362;12.472;2023-05-13T01:27:23;10.38;;;5.75;;
74267;SDS011;62638;51.362;12.472;2023-05-13T01:29:49;10.93;;;5.13;;
74267;SDS011;62638;51.362;12.472;2023-05-13T01:32:15;13.32;;;5.32;;
74267;SDS011;62638;51.362;12.472;2023-05-13T01:34:41;10.82;;;5.10;;
74267;SDS011;62638;51.362;12.472;2023-05-13T01:37:08;10.75;;;5.57;;
74267;SDS011;62638;51.362;12.472;2023-05-13T01:39:34;8.83;;;5.73;;
74267;SDS011;62638;51.362;12.472;2023-05-13T01:42:02;9.73;;;5.20;;
74267;SDS011;62638;51.362;12.472;2023-05-13T01:44:27;12.15;;;6.38;;
74267;SDS011;62638;51.362;12.472;2023-05-13T01:46:53;9.73;;;5.07;;
74267;SDS011;62638;51.362;12.472;2023-05-13T01:49:18;12.17;;;5.00;;
74267;SDS011;62638;51.362;12.472;2023-05-13T01:51:43;9.70;;;5.28;;
74267;SDS011;62638;51.362;12.472;2023-05-13T01:54:08;10.93;;;5.40;;
74267;SDS011;62638;51.362;12.472;2023-05-13T01:56:34;8.93;;;4.85;;
74267;SDS011;62638;51.362;12.472;2023-05-13T01:58:59;8.43;;;5.22;;
74267;SDS011;62638;51.362;12.472;2023-05-13T02:01:25;8.50;;;5.25;;
74267;SDS011;62638;51.362;12.472;2023-05-13T02:03:50;11.25;;;5.72;;
74267;SDS011;62638;51.362;12.472;2023-05-13T02:06:16;9.02;;;5.40;;
74267;SDS011;62638;51.362;12.472;2023-05-13T02:08:41;9.05;;;4.82;;
74267;SDS011;62638;51.362;12.472;2023-05-13T02:11:07;11.20;;;6.07;;
74267;SDS011;62638;51.362;12.472;2023-05-13T02:13:32;9.30;;;5.25;;
74267;SDS011;62638;51.362;12.472;2023-05-13T02:15:58;10.15;;;5.45;;
74267;SDS011;62638;51.362;12.472;2023-05-13T02:18:23;12.55;;;5.50;;
74267;SDS011;62638;51.362;12.472;2023-05-13T02:20:48;12.27;;;5.70;;
74267;SDS011;62638;51.362;12.472;2023-05-13T02:23:14;10.57;;;6.10;;
74267;SDS011;62638;51.362;12.472;2023-05-13T02:25:40;9.82;;;4.70;;
74267;SDS011;62638;51.362;12.472;2023-05-13T02:28:06;7.85;;;4.70;;
74267;SDS011;62638;51.362;12.472;2023-05-13T02:30:31;10.65;;;6.00;;
74267;SDS011;62638;51.362;12.472;2023-05-13T02:32:56;13.10;;;5.20;;
74267;SDS011;62638;51.362;12.472;2023-05-13T02:35:22;11.00;;;5.78;;
74267;SDS011;62638;51.362;12.472;2023-05-13T02:37:49;9.60;;;4.78;;
74267;SDS011;62638;51.362;12.472;2023-05-13T02:40:14;7.35;;;4.95;;
74267;SDS011;62638;51.362;12.472;2023-05-13T02:42:40;8.60;;;5.40;;
74267;SDS011;62638;51.362;12.472;2023-05-13T02:45:07;12.48;;;5.65;;
74267;SDS011;62638;51.362;12.472;2023-05-13T02:47:33;12.88;;;5.78;;
74267;SDS011;62638;51.362;12.472;2023-05-13T02:49:58;11.30;;;5.60;;
74267;SDS011;62638;51.362;12.472;2023-05-13T02:52:24;12.70;;;5.53;;
74267;SDS011;62638;51.362;12.472;2023-05-13T02:54:49;9.50;;;5.00;;
74267;SDS011;62638;51.362;12.472;2023-05-13T02:57:14;15.17;;;5.40;;
74267;SDS011;62638;51.362;12.472;2023-05-13T02:59:40;11.57;;;6.00;;
74267;SDS011;62638;51.362;12.472;2023-05-13T03:02:05;11.80;;;5.78;;
74267;SDS011;62638;51.362;12.472;2023-05-13T03:04:30;13.00;;;5.87;;
74267;SDS011;62638;51.362;12.472;2023-05-13T03:06:56;11.30;;;5.60;;
74267;SDS011;62638;51.362;12.472;2023-05-13T03:09:21;9.43;;;5.40;;
74267;SDS011;62638;51.362;12.472;2023-05-13T03:11:46;11.37;;;5.60;;
74267;SDS011;62638;51.362;12.472;2023-05-13T03:14:12;10.57;;;5.03;;
74267;SDS011;62638;51.362;12.472;2023-05-13T03:16:37;10.40;;;6.43;;
74267;SDS011;62638;51.362;12.472;2023-05-13T03:19:02;11.77;;;5.73;;
74267;SDS011;62638;51.362;12.472;2023-05-13T03:21:28;10.77;;;5.47;;
74267;SDS011;62638;51.362;12.472;2023-05-13T03:23:53;9.70;;;6.00;;
74267;SDS011;62638;51.362;12.472;2023-05-13T03:26:18;10.48;;;6.28;;
74267;SDS011;62638;51.362;12.472;2023-05-13T03:28:44;7.28;;;4.57;;
74267;SDS011;62638;51.362;12.472;2023-05-13T03:31:10;9.73;;;5.25;;
74267;SDS011;62638;51.362;12.472;2023-05-13T03:33:35;10.45;;;5.55;;
74267;SDS011;62638;51.362;12.472;2023-05-13T03:36:01;9.77;;;5.47;;
74267;SDS011;62638;51.362;12.472;2023-05-13T03:38:26;10.07;;;5.13;;
74267;SDS011;62638;51.362;12.472;2023-05-13T03:40:52;11.43;;;5.78;;
74267;SDS011;62638;51.362;12.472;2023-05-13T03:43:17;10.07;;;5.20;;
74267;SDS011;62638;51.362;12.472;2023-05-13T03:45:42;9.53;;;5.67;;
74267;SDS011;62638;51.362;12.472;2023-05-13T03:48:11;7.70;;;4.43;;
74267;SDS011;62638;51.362;12.472;2023-05-13T03:50:37;11.43;;;5.88;;
74267;SDS011;62638;51.362;12.472;2023-05-13T03:53:02;12.73;;;5.87;;
74267;SDS011;62638;51.362;12.472;2023-05-13T03:55:28;10.15;;;5.25;;
74267;SDS011;62638;51.362;12.472;2023-05-13T03:57:53;12.33;;;6.07;;
74267;SDS011;62638;51.362;12.472;2023-05-13T04:00:18;9.23;;;5.47;;
74267;SDS011;62638;51.362;12.472;2023-05-13T04:02:43;9.50;;;5.47;;
74267;SDS011;62638;51.362;12.472;2023-05-13T04:05:09;11.65;;;6.35;;
74267;SDS011;62638;51.362;12.472;2023-05-13T04:07:35;12.35;;;5.78;;
74267;SDS011;62638;51.362;12.472;2023-05-13T04:10:00;9.17;;;5.63;;
74267;SDS011;62638;51.362;12.472;2023-05-13T04:12:26;11.50;;;5.33;;
74267;SDS011;62638;51.362;12.472;2023-05-13T04:14:51;11.40;;;6.33;;
74267;SDS011;62638;51.362;12.472;2023-05-13T04:17:16;11.53;;;6.67;;
74267;SDS011;62638;51.362;12.472;2023-05-13T04:19:41;10.43;;;5.53;;
74267;SDS011;62638;51.362;12.472;2023-05-13T04:22:07;11.80;;;5.47;;
74267;SDS011;62638;51.362;12.472;2023-05-13T04:24:32;8.43;;;5.10;;
74267;SDS011;62638;51.362;12.472;2023-05-13T04:26:57;9.60;;;5.50;;
74267;SDS011;62638;51.362;12.472;2023-05-13T04:29:22;11.53;;;5.60;;
74267;SDS011;62638;51.362;12.472;2023-05-13T04:31:48;11.00;;;5.40;;
74267;SDS011;62638;51.362;12.472;2023-05-13T04:34:13;11.83;;;6.60;;
74267;SDS011;62638;51.362;12.472;2023-05-13T04:36:39;13.73;;;6.47;;
74267;SDS011;62638;51.362;12.472;2023-05-13T04:39:04;11.17;;;5.20;;
74267;SDS011;62638;51.362;12.472;2023-05-13T04:41:29;11.80;;;5.85;;
74267;SDS011;62638;51.362;12.472;2023-05-13T04:43:55;13.03;;;7.27;;
74267;SDS011;62638;51.362;12.472;2023-05-13T04:46:20;16.03;;;7.43;;
74267;SDS011;62638;51.362;12.472;2023-05-13T04:48:45;12.37;;;6.77;;
74267;SDS011;62638;51.362;12.472;2023-05-13T04:51:12;13.38;;;6.55;;
74267;SDS011;62638;51.362;12.472;2023-05-13T04:53:39;9.35;;;6.25;;
74267;SDS011;62638;51.362;12.472;2023-05-13T04:56:04;9.57;;;5.03;;
74267;SDS011;62638;51.362;12.472;2023-05-13T04:58:29;10.65;;;5.15;;
74267;SDS011;62638;51.362;12.472;2023-05-13T05:00:55;9.97;;;5.07;;
74267;SDS011;62638;51.362;12.472;2023-05-13T05:03:21;10.05;;;5.75;;
74267;SDS011;62638;51.362;12.472;2023-05-13T05:05:46;9.77;;;4.22;;
74267;SDS011;62638;51.362;12.472;2023-05-13T05:08:11;10.23;;;5.30;;
74267;SDS011;62638;51.362;12.472;2023-05-13T05:10:37;9.90;;;5.20;;
74267;SDS011;62638;51.362;12.472;2023-05-13T05:13:02;7.47;;;5.72;;
74267;SDS011;62638;51.362;12.472;2023-05-13T05:15:27;10.70;;;5.57;;
74267;SDS011;62638;51.362;12.472;2023-05-13T05:17:53;8.10;;;5.47;;
74267;SDS011;62638;51.362;12.472;2023-05-13T05:20:19;8.95;;;5.78;;
74267;SDS011;62638;51.362;12.472;2023-05-13T05:22:44;8.32;;;5.28;;
74267;SDS011;62638;51.362;12.472;2023-05-13T05:25:10;9.43;;;5.80;;
74267;SDS011;62638;51.362;12.472;2023-05-13T05:27:35;8.98;;;4.28;;
74267;SDS011;62638;51.362;12.472;2023-05-13T05:30:00;8.38;;;4.55;;
74267;SDS011;62638;51.362;12.472;2023-05-13T05:32:26;9.23;;;4.80;;
74267;SDS011;62638;51.362;12.472;2023-05-13T05:34:51;8.63;;;5.27;;
74267;SDS011;62638;51.362;12.472;2023-05-13T05:37:16;6.40;;;3.90;;
74267;SDS011;62638;51.362;12.472;2023-05-13T05:39:42;7.35;;;4.47;;
74267;SDS011;62638;51.362;12.472;2023-05-13T05:42:07;6.53;;;4.83;;
74267;SDS011;62638;51.362;12.472;2023-05-13T05:44:32;8.43;;;4.82;;
74267;SDS011;62638;51.362;12.472;2023-05-13T05:46:58;8.55;;;5.40;;
74267;SDS011;62638;51.362;12.472;2023-05-13T05:49:23;9.00;;;5.53;;
74267;SDS011;62638;51.362;12.472;2023-05-13T05:51:48;5.93;;;4.47;;
74267;SDS011;62638;51.362;12.472;2023-05-13T05:54:13;5.57;;;4.13;;
74267;SDS011;62638;51.362;12.472;2023-05-13T05:56:39;7.43;;;4.47;;
74267;SDS011;62638;51.362;12.472;2023-05-13T05:59:04;6.82;;;4.28;;
74267;SDS011;62638;51.362;12.472;2023-05-13T06:01:29;8.07;;;4.53;;
74267;SDS011;62638;51.362;12.472;2023-05-13T06:03:57;8.30;;;4.30;;
74267;SDS011;62638;51.362;12.472;2023-05-13T06:06:23;9.68;;;4.53;;
74267;SDS011;62638;51.362;12.472;2023-05-13T06:08:48;7.87;;;4.47;;
74267;SDS011;62638;51.362;12.472;2023-05-13T06:11:13;4.63;;;3.90;;
74267;SDS011;62638;51.362;12.472;2023-05-13T06:13:38;6.63;;;4.30;;
74267;SDS011;62638;51.362;12.472;2023-05-13T06:16:04;8.20;;;4.30;;
74267;SDS011;62638;51.362;12.472;2023-05-13T06:18:29;10.40;;;4.43;;
74267;SDS011;62638;51.362;12.472;2023-05-13T06:20:54;6.03;;;3.70;;
74267;SDS011;62638;51.362;12.472;2023-05-13T06:23:20;7.53;;;3.93;;
74267;SDS011;62638;51.362;12.472;2023-05-13T06:25:45;8.33;;;4.13;;
74267;SDS011;62638;51.362;12.472;2023-05-13T06:28:11;5.20;;;3.67;;
74267;SDS011;62638;51.362;12.472;2023-05-13T06:30:36;5.40;;;3.83;;
74267;SDS011;62638;51.362;12.472;2023-05-13T06:33:02;4.68;;;3.30;;
74267;SDS011;62638;51.362;12.472;2023-05-13T06:35:28;7.47;;;3.97;;
74267;SDS011;62638;51.362;12.472;2023-05-13T06:37:53;5.50;;;3.13;;
74267;SDS011;62638;51.362;12.472;2023-05-13T06:40:18;6.17;;;3.80;;
74267;SDS011;62638;51.362;12.472;2023-05-13T06:42:43;3.80;;;2.53;;
74267;SDS011;62638;51.362;12.472;2023-05-13T06:45:09;6.90;;;3.80;;
74267;SDS011;62638;51.362;12.472;2023-05-13T06:47:34;5.18;;;2.70;;
74267;SDS011;62638;51.362;12.472;2023-05-13T06:49:59;5.60;;;4.07;;
74267;SDS011;62638;51.362;12.472;2023-05-13T06:52:25;6.85;;;3.42;;
74267;SDS011;62638;51.362;12.472;2023-05-13T06:54:51;4.70;;;3.40;;
74267;SDS011;62638;51.362;12.472;2023-05-13T06:57:16;4.70;;;3.25;;
74267;SDS011;62638;51.362;12.472;2023-05-13T06:59:43;5.10;;;2.53;;
74267;SDS011;62638;51.362;12.472;2023-05-13T07:02:08;5.60;;;3.65;;
74267;SDS011;62638;51.362;12.472;2023-05-13T07:04:35;3.60;;;2.47;;
74267;SDS011;62638;51.362;12.472;2023-05-13T07:07:00;4.75;;;2.80;;
74267;SDS011;62638;51.362;12.472;2023-05-13T07:09:26;5.00;;;2.50;;
74267;SDS011;62638;51.362;12.472;2023-05-13T07:11:51;5.50;;;1.87;;
74267;SDS011;62638;51.362;12.472;2023-05-13T07:14:16;5.30;;;2.63;;
74267;SDS011;62638;51.362;12.472;2023-05-13T07:16:42;4.40;;;2.50;;
74267;SDS011;62638;51.362;12.472;2023-05-13T07:19:07;2.80;;;1.97;;
74267;SDS011;62638;51.362;12.472;2023-05-13T07:21:32;3.03;;;2.07;;
74267;SDS011;62638;51.362;12.472;2023-05-13T07:23:57;4.30;;;2.63;;
74267;SDS011;62638;51.362;12.472;2023-05-13T07:26:23;3.33;;;2.40;;
74267;SDS011;62638;51.362;12.472;2023-05-13T07:28:48;4.37;;;3.17;;
74267;SDS011;62638;51.362;12.472;2023-05-13T07:31:13;3.27;;;2.47;;
74267;SDS011;62638;51.362;12.472;2023-05-13T07:33:38;3.53;;;2.20;;
74267;SDS011;62638;51.362;12.472;2023-05-13T07:36:04;3.27;;;2.30;;
74267;SDS011;62638;51.362;12.472;2023-05-13T07:38:30;5.93;;;2.10;;
74267;SDS011;62638;51.362;12.472;2023-05-13T07:40:55;4.55;;;2.50;;
74267;SDS011;62638;51.362;12.472;2023-05-13T07:43:20;3.40;;;2.20;;
74267;SDS011;62638;51.362;12.472;2023-05-13T07:45:49;2.67;;;1.77;;
74267;SDS011;62638;51.362;12.472;2023-05-13T07:48:15;2.20;;;1.45;;
74267;SDS011;62638;51.362;12.472;2023-05-13T07:50:41;2.90;;;1.92;;
74267;SDS011;62638;51.362;12.472;2023-05-13T07:53:10;2.83;;;1.92;;
74267;SDS011;62638;51.362;12.472;2023-05-13T07:55:35;3.78;;;2.25;;
74267;SDS011;62638;51.362;12.472;2023-05-13T07:58:00;4.70;;;2.30;;
74267;SDS011;62638;51.362;12.472;2023-05-13T08:00:26;4.03;;;2.00;;
74267;SDS011;62638;51.362;12.472;2023-05-13T08:02:51;3.33;;;2.13;;
74267;SDS011;62638;51.362;12.472;2023-05-13T08:05:16;4.30;;;2.40;;
74267;SDS011;62638;51.362;12.472;2023-05-13T08:07:42;4.27;;;2.23;;
74267;SDS011;62638;51.362;12.472;2023-05-13T08:10:07;2.90;;;1.98;;
74267;SDS011;62638;51.362;12.472;2023-05-13T08:12:32;2.72;;;1.83;;
74267;SDS011;62638;51.362;12.472;2023-05-13T08:14:57;2.73;;;1.73;;
74267;SDS011;62638;51.362;12.472;2023-05-13T08:17:23;4.20;;;2.25;;
74267;SDS011;62638;51.362;12.472;2023-05-13T08:19:48;3.53;;;1.65;;
74267;SDS011;62638;51.362;12.472;2023-05-13T08:22:13;2.73;;;2.00;;
74267;SDS011;62638;51.362;12.472;2023-05-13T08:24:39;4.00;;;2.47;;
74267;SDS011;62638;51.362;12.472;2023-05-13T08:27:05;4.15;;;2.17;;
74267;SDS011;62638;51.362;12.472;2023-05-13T08:29:30;3.58;;;2.28;;
74267;SDS011;62638;51.362;12.472;2023-05-13T08:31:55;3.27;;;2.13;;
74267;SDS011;62638;51.362;12.472;2023-05-13T08:34:21;5.45;;;2.28;;
74267;SDS011;62638;51.362;12.472;2023-05-13T08:36:46;3.65;;;2.00;;
74267;SDS011;62638;51.362;12.472;2023-05-13T08:39:12;3.93;;;2.40;;
74267;SDS011;62638;51.362;12.472;2023-05-13T08:41:37;3.30;;;2.30;;
74267;SDS011;62638;51.362;12.472;2023-05-13T08:44:05;2.80;;;1.67;;
74267;SDS011;62638;51.362;12.472;2023-05-13T08:46:33;3.15;;;2.10;;
74267;SDS011;62638;51.362;12.472;2023-05-13T08:49:02;5.93;;;2.08;;
74267;SDS011;62638;51.362;12.472;2023-05-13T08:51:27;3.13;;;2.28;;
74267;SDS011;62638;51.362;12.472;2023-05-13T08:53:53;7.10;;;2.38;;
74267;SDS011;62638;51.362;12.472;2023-05-13T08:56:19;4.82;;;2.10;;
74267;SDS011;62638;51.362;12.472;2023-05-13T08:58:46;4.15;;;2.25;;
74267;SDS011;62638;51.362;12.472;2023-05-13T09:01:11;2.80;;;2.05;;
74267;SDS011;62638;51.362;12.472;2023-05-13T09:03:38;3.92;;;2.42;;
74267;SDS011;62638;51.362;12.472;2023-05-13T09:06:17;3.92;;;2.40;;
74267;SDS011;62638;51.362;12.472;2023-05-13T09:08:42;2.77;;;2.17;;
74267;SDS011;62638;51.362;12.472;2023-05-13T09:11:08;5.18;;;2.50;;
74267;SDS011;62638;51.362;12.472;2023-05-13T09:13:33;3.10;;;2.23;;
74267;SDS011;62638;51.362;12.472;2023-05-13T09:15:58;5.03;;;2.72;;
74267;SDS011;62638;51.362;12.472;2023-05-13T09:18:29;4.80;;;2.20;;
74267;SDS011;62638;51.362;12.472;2023-05-13T09:20:55;3.63;;;2.40;;
74267;SDS011;62638;51.362;12.472;2023-05-13T09:23:21;4.00;;;2.20;;
74267;SDS011;62638;51.362;12.472;2023-05-13T09:25:47;4.32;;;2.40;;
74267;SDS011;62638;51.362;12.472;2023-05-13T09:28:13;4.13;;;2.30;;
74267;SDS011;62638;51.362;12.472;2023-05-13T09:30:39;3.50;;;2.15;;
74267;SDS011;62638;51.362;12.472;2023-05-13T09:33:09;3.47;;;2.40;;
74267;SDS011;62638;51.362;12.472;2023-05-13T09:35:37;4.68;;;2.30;;
74267;SDS011;62638;51.362;12.472;2023-05-13T09:38:10;2.75;;;1.98;;
74267;SDS011;62638;51.362;12.472;2023-05-13T09:40:40;2.42;;;1.90;;
74267;SDS011;62638;51.362;12.472;2023-05-13T09:43:05;5.53;;;2.85;;
74267;SDS011;62638;51.362;12.472;2023-05-13T09:45:32;3.88;;;2.20;;
74267;SDS011;62638;51.362;12.472;2023-05-13T09:47:58;2.97;;;2.22;;
74267;SDS011;62638;51.362;12.472;2023-05-13T09:50:23;3.35;;;2.90;;
74267;SDS011;62638;51.362;12.472;2023-05-13T09:52:48;3.07;;;2.00;;
74267;SDS011;62638;51.362;12.472;2023-05-13T09:55:14;4.50;;;2.85;;
74267;SDS011;62638;51.362;12.472;2023-05-13T09:57:40;3.65;;;2.45;;
74267;SDS011;62638;51.362;12.472;2023-05-13T10:00:06;3.78;;;2.47;;
74267;SDS011;62638;51.362;12.472;2023-05-13T10:02:32;3.22;;;2.15;;
74267;SDS011;62638;51.362;12.472;2023-05-13T10:04:58;3.15;;;1.95;;
74267;SDS011;62638;51.362;12.472;2023-05-13T10:07:24;3.50;;;2.30;;
74267;SDS011;62638;51.362;12.472;2023-05-13T10:09:50;3.88;;;2.03;;
74267;SDS011;62638;51.362;12.472;2023-05-13T10:12:17;4.13;;;2.10;;
74267;SDS011;62638;51.362;12.472;2023-05-13T10:14:45;3.13;;;2.15;;
74267;SDS011;62638;51.362;12.472;2023-05-13T10:17:15;4.65;;;2.10;;
74267;SDS011;62638;51.362;12.472;2023-05-13T10:19:41;6.68;;;2.75;;
74267;SDS011;62638;51.362;12.472;2023-05-13T10:22:06;3.63;;;2.10;;
74267;SDS011;62638;51.362;12.472;2023-05-13T10:24:32;5.40;;;2.17;;
74267;SDS011;62638;51.362;12.472;2023-05-13T10:26:58;5.28;;;2.42;;
74267;SDS011;62638;51.362;12.472;2023-05-13T10:29:25;4.72;;;2.28;;
74267;SDS011;62638;51.362;12.472;2023-05-13T10:31:53;3.00;;;1.92;;
74267;SDS011;62638;51.362;12.472;2023-05-13T10:34:20;2.58;;;1.95;;
74267;SDS011;62638;51.362;12.472;2023-05-13T10:39:55;5.72;;;1.98;;
74267;SDS011;62638;51.362;12.472;2023-05-13T10:45:07;3.65;;;2.10;;
74267;SDS011;62638;51.362;12.472;2023-05-13T10:47:33;3.53;;;2.00;;
74267;SDS011;62638;51.362;12.472;2023-05-13T10:49:59;2.95;;;2.08;;
74267;SDS011;62638;51.362;12.472;2023-05-13T10:52:42;2.00;;;1.80;;
74267;SDS011;62638;51.362;12.472;2023-05-13T10:55:14;6.03;;;2.20;;
74267;SDS011;62638;51.362;12.472;2023-05-13T11:00:31;4.22;;;2.22;;
74267;SDS011;62638;51.362;12.472;2023-05-13T11:02:56;6.75;;;2.67;;
74267;SDS011;62638;51.362;12.472;2023-05-13T11:05:22;4.10;;;2.28;;
74267;SDS011;62638;51.362;12.472;2023-05-13T11:07:54;5.07;;;2.03;;
74267;SDS011;62638;51.362;12.472;2023-05-13T11:10:27;3.55;;;2.25;;
74267;SDS011;62638;51.362;12.472;2023-05-13T11:15:49;2.67;;;1.77;;
74267;SDS011;62638;51.362;12.472;2023-05-13T11:18:16;2.92;;;2.03;;
74267;SDS011;62638;51.362;12.472;2023-05-13T11:20:45;2.38;;;1.80;;
74267;SDS011;62638;51.362;12.472;2023-05-13T11:23:17;3.72;;;2.17;;
74267;SDS011;62638;51.362;12.472;2023-05-13T11:25:43;4.30;;;2.53;;
74267;SDS011;62638;51.362;12.472;2023-05-13T11:28:13;3.35;;;2.30;;
74267;SDS011;62638;51.362;12.472;2023-05-13T11:30:53;2.67;;;1.88;;
74267;SDS011;62638;51.362;12.472;2023-05-13T11:33:21;4.20;;;1.98;;
74267;SDS011;62638;51.362;12.472;2023-05-13T11:35:53;2.88;;;2.25;;
74267;SDS011;62638;51.362;12.472;2023-05-13T11:38:22;2.85;;;1.90;;
74267;SDS011;62638;51.362;12.472;2023-05-13T11:43:17;2.47;;;1.67;;
74267;SDS011;62638;51.362;12.472;2023-05-13T11:45:44;3.65;;;1.80;;
74267;SDS011;62638;51.362;12.472;2023-05-13T11:48:17;4.20;;;2.03;;
74267;SDS011;62638;51.362;12.472;2023-05-13T11:50:46;2.05;;;1.73;;
74267;SDS011;62638;51.362;12.472;2023-05-13T11:53:18;2.35;;;1.98;;
74267;SDS011;62638;51.362;12.472;2023-05-13T11:55:44;3.35;;;1.88;;
74267;SDS011;62638;51.362;12.472;2023-05-13T11:58:11;3.87;;;2.10;;
74267;SDS011;62638;51.362;12.472;2023-05-13T12:00:38;3.47;;;2.63;;
